Create Custom Reports and Graphics: Custom Report

Latest Observations

Map

15 Minute Data

Lodi West

Latest Observations

15 Minute Data | America/Los_Angeles
as of 3/22/19 6:07 PM PDT
Station Date Time Temp (°F) Dew Pt (°F) RH (%) Wind Dir (°) Wind Spd (mph) Wind Gust (mph) Latest Rain (In) Daily Rain (In) Daily Min Temp (°F) Daily Max Temp (°F) Day
Utter - Wilson 3/22/19 1800 54.7   10.2 51.1   6.1 88   39 E | 99 3.0   1.9 4.2   3.6 0.01 0.04 43.2   3.3 56.9   9.0 3/22/19
Clarksburg (CLK) 3/22/19 1800 55.2   8.1 52.4   7.0 90   38 E | 85 1.6   2.5 3.0   6.1 0.00 0.03 46.7   9.0 57.5   7.8 3/22/19
Gorter - Wilson 3/22/19 1800 55.1   9.4 50.9   6.8 85   38 E | 79 1.6   4.1 2.5   6.1 0.00 0.03 45.9   8.1 57.4   8.3 3/22/19
Hood (HOD) 3/22/19 1800 55.9   7.4 53.0   12.1 90   46 E | 80 0.3   4.1 1.2   7.5 0.00 0.03 45.7   6.1 58.9   5.8 3/22/19
Courtland-C3 3/22/19 1800 55.3   8.6 49.8   8.7 82   38 S | 182 1.5   3.8 2.5   7.2 0.00 0.02 42.4   6.1 58.7   6.7 3/22/19
Pacific Fruit 3/22/19 1800 56.4   8.4 52.1   8.0 86   39 SSW | 194 1.8   5.3 2.8   9.0 0.00 0.02 43.3   3.5 59.6   6.4 3/22/19
Ryer Island South (RIS) 3/22/19 1800 54.3   8.4 51.9   8.2 92   42 SSE | 152 2.3   6.1 4.2   9.3 0.01 0.07 46.3   4.5 59.6   5.9 3/22/19
Guard Rd (Lodi WSW) 3/22/19 1800 56.0   8.0 50.6   14.8 82   47 W | 265 2.4   4.8 4.2   10.0 0.00 0.00 41.9   1.1 62.4   3.1 3/22/19
Claussen 3/22/19 1800 56.6   8.1 53.5   10.8 89   45 NW | 317 1.3   4.1 2.4   8.2 0.00 0.03 41.2   1.1 65.0   2.7 3/22/19

Lodi Central

Latest Observations

15 Minute Data | America/Los_Angeles
as of 3/22/19 6:07 PM PDT
Station Date Time Temp (°F) Dew Pt (°F) RH (%) Wind Dir (°) Wind Spd (mph) Wind Gust (mph) Latest Rain (In) Daily Rain (In) Daily Min Temp (°F) Daily Max Temp (°F) Day
Galt West (GAW) 3/22/19 1800 56.6   6.9 51.1   11.4 82   40 NNW | 327 1.2   4.6 2.7   6.5 0.00 0.00 44.3   5.4 60.6   4.7 3/22/19
Valley Oak 3/22/19 1800 56.7   7.4 47.8   12.8 72   38 W | 270 1.4   4.3 3.1   7.2 0.00 0.00 41.7   0.9 61.1   4.2 3/22/19
Thornton 3/22/19 1800 56.8   7.2 50.1   14.6 78   44 WSW | 256 2.4   4.1 5.4   5.0 0.00 0.00 41.4   0.2 60.9   4.1 3/22/19
Kost Rd 3/22/19 1800 56.2   7.5 52.3   11.6 87   44 WSW | 250 2.7   3.8 4.2   5.6 0.00 0.01 40.0   1.3 61.0   4.5 3/22/19
DeVries Road-North 3/22/19 1800 55.4   7.3 50.8   10.7 84   41 W | 281 2.5   2.6 4.2   4.1 0.00 0.00 41.6   0.5 61.4   3.6 3/22/19
Lodi (LangeTwins) 3/19/19 0400 67.5   2.0 63.1   0.8 86   9 NE | 55 0.2   1.4 2.4   1.0 0.00 0.00 67.0   2.2 74.9   5.4 3/19/19
Acampo (ACP) 3/22/19 1800 57.2   6.8 49.1   13.0 74   39 W | 275 3.8   2.7 6.8   4.0 0.00 0.00 41.9   2.0 62.4   2.6 3/22/19
Lodi West (MDW) 3/22/19 1800 56.3   7.2 49.8   17.0 79   47 WNW | 284 2.9   2.9 6.4   5.7 0.00 0.00 41.6   1.7 62.4   3.1 3/22/19

Latest Observation

19 Stations

15 Minute Data | America/Los_Angeles
as of 3/22/19 6:07 PM PDT
Station Date Time Temp (°F) Dew Pt (°F) RH (%) Wind Spd (mph) Wind Dir (°) Wind Gust (mph) Latest Rain (In) Daily Rain (In) Daily Min Temp (°F) Daily Max Temp (°F) Day
Borden Hills 3/22/19 1800 59.6   4.8 50.4   7.0 71   25 2.5   4.7 SE | 127 3.2   7.1 0.00 0.00 42.0   1.4 63.0   3.0 3/22/19
Collegeville (COL) 3/22/19 1800 60.7   3.6 45.8   10.1 58   23 2.4   4.6 SE | 136 3.7   6.9 0.00 0.00 39.7   1.1 65.1   1.7 3/22/19
Galt-East (EGT) 3/22/19 1800 58.6   4.2 50.8   8.1 75   28 2.9   3.0 E | 96 4.4   6.1 0.00 0.00 41.4   0.3 62.1   2.2 3/22/19
Escalon (ESL) 3/22/19 1800 61.9   3.3 43.3   6.6 50   16 1.7   2.6 SE | 125 3.9   4.4 0.00 0.00 38.7   1.3 64.9   3.4 3/22/19
Victor - N (Katusha) 3/22/19 1800 57.3   5.4 43.0   8.7 59   24 2.1   4.1 SSE | 148 6.1   4.7 0.00 0.00 41.5   2.4 61.7   3.6 3/22/19
Gilbeau Ranch 3/22/19 1800 58.6   4.5 49.0   8.0 70   26 0.9   4.5 SE | 139 3.5   6.4 0.00 0.00 41.1   1.0 61.5   2.6 3/22/19
Lodi 3/22/19 1715 59.5   4.3 45.0   5.3 59   18 0.6   5.0 NNW | 330 3.9   5.7 0.00 0.00 41.3   2.3 61.9   2.8 3/22/19
Live Oak (LIV) 3/22/19 1800 57.3   6.8 50.1   11.5 77   38 4.2   2.7 W | 272 7.3   4.2 0.00 0.00 41.1   2.7 63.6   1.9 3/22/19
Lockeford (LOC) 3/22/19 1800 59.2   3.6 - - 3.1   2.5 S | 173 5.4   4.2 0.00 0.00 41.6   1.7 61.6   2.4 3/22/19
Lone Oak-L28 3/22/19 1800 57.9   4.6 47.6   6.0 69   22 3.2   2.5 E | 88 4.5   4.8 0.00 0.00 39.8   1.1 61.5   2.4 3/22/19
Sheldon (SHL) 3/22/19 1800 56.1   7.3 51.7   8.8 85   38 1.9   3.8 NE | 43 4.4   5.0 0.00 0.00 43.2   4.1 59.3   5.4 3/22/19
Sierra Loma-L27 3/22/19 1800 58.9   5.1 49.5   6.9 71   25 3.3   2.7 NNE | 21 5.6   3.6 0.00 0.00 42.7   0.7 61.6   3.5 3/22/19
Simmerhorn (SIM) 3/22/19 1800 57.9   4.9 47.8   7.5 69   26 - - - - - 42.6   0.5 61.3   3.5 3/22/19
Sloughhouse (SLH) 3/22/19 1700 57.6   6.5 49.2   8.6 73   31 0.4   1.8 N | 10 3.8   5.0 0.00 0.00 41.3   2.6 60.1   4.6 3/22/19
5 Wells 3/22/19 1800 58.1   5.4 51.1   7.6 77   29 2.3   4.0 E | 86 4.3   5.7 0.00 0.00 41.2   0.5 61.2   3.5 3/22/19